createdAt,value
2022-12-01T00:00:58.562Z,18.60
2022-12-01T00:03:46.483Z,17.93
2022-12-01T00:06:33.885Z,18.03
2022-12-01T00:09:40.535Z,19.13
2022-12-01T00:12:27.972Z,17.20
2022-12-01T00:15:15.883Z,17.37
2022-12-01T00:18:05.382Z,18.97
2022-12-01T00:20:56.044Z,17.97
2022-12-01T00:23:49.582Z,18.00
2022-12-01T00:26:38.393Z,18.50
2022-12-01T00:29:25.823Z,19.07
2022-12-01T00:32:13.960Z,19.00
2022-12-01T00:35:01.871Z,19.23
2022-12-01T00:37:49.789Z,18.67
2022-12-01T00:40:37.441Z,19.33
2022-12-01T00:43:25.459Z,18.07
2022-12-01T00:46:13.177Z,17.30
2022-12-01T00:49:00.557Z,19.17
2022-12-01T00:51:48.553Z,20.67
2022-12-01T00:54:36.414Z,19.63
2022-12-01T00:57:23.668Z,19.33
2022-12-01T01:00:12.264Z,20.13
2022-12-01T01:02:59.649Z,19.00
2022-12-01T01:05:47.569Z,19.63
2022-12-01T01:08:35.449Z,19.60
2022-12-01T01:11:23.386Z,18.93
2022-12-01T01:14:11.086Z,19.67
2022-12-01T01:16:59.023Z,18.87
2022-12-01T01:19:47.000Z,18.53
2022-12-01T01:22:35.963Z,18.53
2022-12-01T01:25:23.839Z,19.13
2022-12-01T01:28:11.725Z,18.07
2022-12-01T01:30:59.408Z,17.80
2022-12-01T01:33:47.443Z,18.40
2022-12-01T01:36:34.926Z,18.57
2022-12-01T01:39:22.356Z,16.80
2022-12-01T01:42:13.336Z,17.93
2022-12-01T01:45:01.238Z,17.03
2022-12-01T01:47:50.069Z,16.57
2022-12-01T01:50:38.095Z,14.70
2022-12-01T01:53:25.633Z,15.37
2022-12-01T01:56:13.325Z,14.97
2022-12-01T01:59:01.216Z,14.97
2022-12-01T02:01:53.053Z,14.90
2022-12-01T02:04:42.122Z,15.37
2022-12-01T02:07:29.627Z,15.17
2022-12-01T02:10:22.944Z,15.17
2022-12-01T02:13:13.615Z,17.83
2022-12-01T02:16:15.544Z,16.57
2022-12-01T02:19:10.114Z,17.33
2022-12-01T02:22:08.973Z,16.03
2022-12-01T02:25:02.837Z,15.33
2022-12-01T02:28:09.456Z,15.73
2022-12-01T02:31:03.757Z,15.27
2022-12-01T02:34:05.405Z,16.03
2022-12-01T02:36:59.981Z,16.70
2022-12-01T02:39:56.891Z,16.93
2022-12-01T02:42:55.012Z,18.10
2022-12-01T02:45:46.321Z,18.17
2022-12-01T02:48:35.538Z,17.87
2022-12-01T02:51:33.526Z,19.63
2022-12-01T02:54:21.610Z,17.07
2022-12-01T02:57:10.557Z,17.03
2022-12-01T02:59:58.725Z,18.23
2022-12-01T03:03:05.555Z,16.00
2022-12-01T03:05:58.717Z,19.57
2022-12-01T03:08:53.439Z,19.97
2022-12-01T03:11:51.924Z,18.63
2022-12-01T03:14:42.821Z,18.40
2022-12-01T03:17:35.105Z,20.07
2022-12-01T03:20:22.440Z,18.63
2022-12-01T03:23:12.800Z,18.43
2022-12-01T03:26:02.076Z,19.20
2022-12-01T03:28:54.571Z,19.97
2022-12-01T03:31:53.108Z,19.93
2022-12-01T03:34:43.855Z,19.90
2022-12-01T03:37:37.428Z,19.80
2022-12-01T03:40:27.213Z,19.60
2022-12-01T03:43:17.152Z,21.83
2022-12-01T03:46:04.518Z,19.37
2022-12-01T03:48:55.837Z,19.00
2022-12-01T03:52:09.673Z,19.20
2022-12-01T03:55:00.772Z,18.77
2022-12-01T03:57:53.130Z,20.10
2022-12-01T04:00:40.980Z,19.23
2022-12-01T04:03:28.526Z,20.93
2022-12-01T04:06:16.516Z,21.30
2022-12-01T04:09:04.145Z,18.07
2022-12-01T04:12:10.791Z,18.37
2022-12-01T04:14:58.822Z,18.83
2022-12-01T04:17:46.778Z,20.23
2022-12-01T04:20:34.485Z,18.57
2022-12-01T04:23:40.297Z,17.87
2022-12-01T04:26:29.097Z,19.37
2022-12-01T04:29:16.951Z,19.33
2022-12-01T04:32:04.314Z,21.87
2022-12-01T04:34:52.021Z,18.80
2022-12-01T04:37:39.941Z,18.80
2022-12-01T04:40:27.722Z,21.40
2022-12-01T04:43:15.404Z,18.40
2022-12-01T04:46:02.675Z,19.50
2022-12-01T04:48:50.118Z,19.40
2022-12-01T04:51:37.590Z,18.37
2022-12-01T04:54:25.433Z,17.90
2022-12-01T04:57:12.762Z,18.30
2022-12-01T05:00:00.031Z,18.20
2022-12-01T05:02:47.752Z,17.13
2022-12-01T05:05:34.970Z,18.33
2022-12-01T05:08:22.375Z,19.80
2022-12-01T05:11:12.005Z,18.27
2022-12-01T05:14:08.729Z,17.33
2022-12-01T05:16:58.012Z,16.93
2022-12-01T05:20:04.350Z,17.80
2022-12-01T05:23:10.828Z,18.80
2022-12-01T05:26:01.295Z,16.63
2022-12-01T05:28:48.499Z,18.33
2022-12-01T05:31:36.430Z,16.60
2022-12-01T05:34:23.868Z,17.53
2022-12-01T05:37:11.587Z,16.57
2022-12-01T05:39:59.246Z,16.67
2022-12-01T05:42:46.994Z,18.77
2022-12-01T05:45:35.369Z,18.07
2022-12-01T05:48:23.074Z,17.17
2022-12-01T05:51:11.734Z,18.30
2022-12-01T05:54:02.564Z,17.60
2022-12-01T05:56:49.842Z,16.83
2022-12-01T05:59:37.143Z,17.87
2022-12-01T06:02:27.186Z,16.97
2022-12-01T06:05:14.586Z,18.80
2022-12-01T06:08:02.446Z,17.90
2022-12-01T06:10:49.852Z,18.87
2022-12-01T06:13:37.611Z,20.10
2022-12-01T06:16:25.410Z,20.33
2022-12-01T06:19:12.874Z,19.30
2022-12-01T06:22:03.470Z,21.10
2022-12-01T06:24:51.487Z,19.57
2022-12-01T06:27:38.877Z,19.63
2022-12-01T06:30:26.844Z,18.33
2022-12-01T06:33:14.713Z,17.77
2022-12-01T06:36:03.040Z,18.00
2022-12-01T06:38:50.717Z,18.43
2022-12-01T06:41:38.773Z,17.03
2022-12-01T06:44:26.643Z,18.37
2022-12-01T06:47:15.745Z,19.43
2022-12-01T06:50:03.867Z,18.50
2022-12-01T06:52:52.625Z,17.53
2022-12-01T06:55:40.635Z,15.50
2022-12-01T06:58:28.193Z,16.47
2022-12-01T07:01:17.068Z,16.63
2022-12-01T07:04:04.800Z,18.90
2022-12-01T07:06:52.536Z,20.17
2022-12-01T07:09:40.556Z,20.57
2022-12-01T07:12:30.609Z,19.17
2022-12-01T07:15:18.562Z,21.63
2022-12-01T07:18:05.885Z,18.77
2022-12-01T07:20:53.618Z,21.90
2022-12-01T07:23:41.751Z,19.27
2022-12-01T07:26:28.923Z,16.67
2022-12-01T07:29:16.624Z,17.83
2022-12-01T07:32:03.932Z,18.30
2022-12-01T07:34:51.220Z,17.33
2022-12-01T07:37:38.461Z,17.00
2022-12-01T07:40:26.460Z,16.77
2022-12-01T07:43:14.012Z,16.90
2022-12-01T07:46:23.754Z,16.87
2022-12-01T07:49:14.731Z,16.00
2022-12-01T07:52:02.714Z,18.07
2022-12-01T07:54:50.005Z,23.20
2022-12-01T07:57:37.345Z,23.43
2022-12-01T08:00:25.385Z,19.30
2022-12-01T08:03:13.933Z,27.60
2022-12-01T08:06:02.166Z,21.90
2022-12-01T08:08:50.390Z,18.60
2022-12-01T08:11:37.843Z,18.60
2022-12-01T08:14:27.236Z,20.87
2022-12-01T08:17:15.064Z,17.03
2022-12-01T08:20:02.859Z,16.40
2022-12-01T08:22:50.303Z,17.10
2022-12-01T08:25:38.251Z,16.90
2022-12-01T08:28:25.669Z,15.63
2022-12-01T08:31:14.504Z,17.37
2022-12-01T08:34:02.100Z,16.93
2022-12-01T08:36:49.879Z,16.37
2022-12-01T08:39:37.317Z,16.00
2022-12-01T08:42:24.789Z,16.93
2022-12-01T08:45:12.308Z,17.30
2022-12-01T08:48:00.393Z,16.13
2022-12-01T08:50:47.822Z,15.27
2022-12-01T08:53:38.321Z,16.43
2022-12-01T08:56:30.442Z,15.63
2022-12-01T08:59:18.039Z,15.87
2022-12-01T09:02:07.296Z,15.40
2022-12-01T09:04:54.730Z,15.57
2022-12-01T09:07:42.937Z,15.40
2022-12-01T09:10:30.364Z,16.47
2022-12-01T09:13:17.851Z,15.00
2022-12-01T09:16:06.199Z,16.67
2022-12-01T09:18:53.638Z,16.07
2022-12-01T09:21:43.850Z,15.90
2022-12-01T09:24:31.179Z,15.67
2022-12-01T09:27:19.092Z,15.30
2022-12-01T09:30:06.902Z,15.50
2022-12-01T09:32:54.797Z,17.43
2022-12-01T09:35:42.763Z,15.47
2022-12-01T09:38:30.660Z,14.30
2022-12-01T09:41:18.652Z,14.50
2022-12-01T09:44:06.136Z,14.83
2022-12-01T09:46:54.120Z,15.67
2022-12-01T09:49:44.692Z,16.00
2022-12-01T09:52:39.127Z,13.93
2022-12-01T09:55:26.956Z,15.47
2022-12-01T09:58:17.871Z,15.23
2022-12-01T10:01:05.470Z,15.53
2022-12-01T10:03:55.825Z,14.80
2022-12-01T10:06:45.942Z,16.13
2022-12-01T10:09:50.696Z,14.90
2022-12-01T10:12:39.055Z,14.33
2022-12-01T10:15:26.473Z,15.73
2022-12-01T10:18:33.384Z,14.80
2022-12-01T10:21:23.943Z,14.93
2022-12-01T10:24:14.921Z,14.60
2022-12-01T10:27:22.429Z,14.33
2022-12-01T10:30:20.465Z,13.27
2022-12-01T10:33:27.453Z,14.00
2022-12-01T10:36:14.892Z,13.80
2022-12-01T10:39:04.623Z,13.77
2022-12-01T10:41:52.350Z,14.03
2022-12-01T10:44:40.700Z,14.67
2022-12-01T10:47:29.328Z,12.97
2022-12-01T10:50:27.233Z,13.57
2022-12-01T10:53:41.274Z,13.80
2022-12-01T10:56:29.016Z,13.83
2022-12-01T10:59:28.997Z,13.03
2022-12-01T11:02:18.641Z,12.20
2022-12-01T11:05:07.703Z,13.20
2022-12-01T11:07:55.742Z,13.57
2022-12-01T11:10:49.148Z,13.17
2022-12-01T11:13:37.398Z,13.57
2022-12-01T11:16:44.191Z,13.20
2022-12-01T11:19:34.184Z,12.47
2022-12-01T11:22:23.992Z,12.37
2022-12-01T11:25:19.690Z,13.27
2022-12-01T11:28:07.777Z,13.67
2022-12-01T11:31:02.266Z,13.77
2022-12-01T11:33:53.895Z,12.53
2022-12-01T11:36:45.949Z,13.10
2022-12-01T11:39:35.277Z,13.43
2022-12-01T11:42:27.398Z,13.33
2022-12-01T11:45:29.721Z,13.27
2022-12-01T11:48:25.856Z,13.20
2022-12-01T11:51:26.539Z,11.20
2022-12-01T11:54:14.574Z,13.63
2022-12-01T12:00:22.587Z,11.30
2022-12-01T12:03:27.604Z,14.23
2022-12-01T12:06:39.857Z,12.60
2022-12-01T12:09:47.049Z,12.43
2022-12-01T12:12:37.939Z,12.60
2022-12-01T12:15:44.822Z,13.67
2022-12-01T12:18:52.864Z,12.43
2022-12-01T12:21:59.678Z,11.90
2022-12-01T12:24:47.086Z,11.83
2022-12-01T12:27:37.878Z,12.63
2022-12-01T12:30:29.696Z,12.67
2022-12-01T12:33:27.411Z,12.57
2022-12-01T12:36:26.726Z,12.30
2022-12-01T12:39:29.973Z,12.93
2022-12-01T12:42:38.159Z,11.60
2022-12-01T12:45:43.338Z,11.63
2022-12-01T12:49:03.571Z,12.87
2022-12-01T12:51:55.503Z,12.93
2022-12-01T12:54:49.881Z,12.07
2022-12-01T12:57:42.015Z,13.03
2022-12-01T13:00:29.961Z,12.63
2022-12-01T13:03:30.615Z,12.07
2022-12-01T13:06:47.476Z,11.27
2022-12-01T13:09:50.260Z,12.70
2022-12-01T13:12:40.091Z,11.73
2022-12-01T13:15:28.481Z,12.13
2022-12-01T13:18:35.195Z,12.53
2022-12-01T13:21:24.531Z,11.70
2022-12-01T13:24:19.874Z,12.83
2022-12-01T13:27:11.033Z,12.37
2022-12-01T13:29:59.176Z,12.63
2022-12-01T13:32:47.002Z,12.57
2022-12-01T13:35:36.580Z,14.53
2022-12-01T13:38:25.361Z,19.53
2022-12-01T13:41:12.954Z,18.00
2022-12-01T13:44:02.577Z,13.93
2022-12-01T13:46:52.154Z,17.20
2022-12-01T13:49:44.432Z,20.10
2022-12-01T13:52:33.803Z,15.37
2022-12-01T13:55:24.923Z,12.23
2022-12-01T13:58:14.541Z,14.27
2022-12-01T14:01:21.400Z,15.27
2022-12-01T14:04:12.448Z,12.47
2022-12-01T14:07:19.187Z,13.73
2022-12-01T14:10:26.406Z,15.30
2022-12-01T14:13:18.766Z,14.07
2022-12-01T14:16:06.106Z,12.83
2022-12-01T14:18:58.070Z,12.47
2022-12-01T14:21:47.805Z,12.07
2022-12-01T14:24:36.545Z,12.93
2022-12-01T14:27:34.567Z,14.70
2022-12-01T14:30:45.563Z,14.07
2022-12-01T14:33:53.479Z,12.90
2022-12-01T14:36:44.387Z,13.43
2022-12-01T14:39:32.678Z,13.47
2022-12-01T14:42:45.071Z,12.80
2022-12-01T14:45:40.050Z,14.17
2022-12-01T14:48:32.283Z,12.80
2022-12-01T14:51:20.188Z,13.87
2022-12-01T14:54:11.035Z,13.13
2022-12-01T14:57:06.054Z,13.33
2022-12-01T15:00:07.120Z,12.73
2022-12-01T15:03:11.359Z,12.07
2022-12-01T15:05:58.829Z,12.30
2022-12-01T15:09:03.980Z,14.20
2022-12-01T15:11:52.831Z,13.27
2022-12-01T15:14:47.774Z,12.60
2022-12-01T15:17:37.533Z,12.03
2022-12-01T15:20:29.267Z,13.80
2022-12-01T15:23:17.831Z,12.67
2022-12-01T15:26:05.224Z,14.47
2022-12-01T15:29:05.268Z,14.00
2022-12-01T15:32:02.493Z,13.27
2022-12-01T15:34:52.754Z,13.53
2022-12-01T15:37:43.541Z,13.17
2022-12-01T15:43:41.757Z,13.73
2022-12-01T15:46:30.549Z,13.37
2022-12-01T15:49:18.013Z,11.90
2022-12-01T15:52:10.342Z,13.43
2022-12-01T15:55:01.230Z,13.87
2022-12-01T15:57:48.666Z,12.87
2022-12-01T16:00:36.765Z,13.17
2022-12-01T16:03:24.776Z,12.47
2022-12-01T16:06:13.216Z,12.00
2022-12-01T16:09:02.738Z,12.53
2022-12-01T16:12:09.465Z,12.50
2022-12-01T16:15:03.816Z,12.80
2022-12-01T16:17:53.192Z,12.83
2022-12-01T16:20:43.103Z,12.77
2022-12-01T16:23:30.813Z,12.77
2022-12-01T16:26:18.710Z,13.03
2022-12-01T16:29:15.301Z,12.27
2022-12-01T16:32:29.318Z,13.03
2022-12-01T16:35:22.739Z,13.30
2022-12-01T16:38:16.523Z,13.27
2022-12-01T16:41:15.021Z,12.97
2022-12-01T16:44:27.166Z,13.27
2022-12-01T16:47:16.817Z,12.73
2022-12-01T16:50:04.820Z,13.33
2022-12-01T16:52:52.001Z,13.10
2022-12-01T16:55:43.268Z,13.33
2022-12-01T16:58:30.735Z,14.43
2022-12-01T17:01:18.701Z,13.37
2022-12-01T17:04:07.929Z,14.47
2022-12-01T17:06:55.794Z,14.57
2022-12-01T17:09:43.225Z,15.87
2022-12-01T17:12:30.882Z,14.40
2022-12-01T17:15:19.090Z,14.27
2022-12-01T17:18:06.356Z,14.57
2022-12-01T17:20:58.696Z,13.80
2022-12-01T17:23:46.264Z,13.27
2022-12-01T17:26:33.769Z,14.37
2022-12-01T17:29:21.221Z,14.67
2022-12-01T17:32:09.140Z,13.40
2022-12-01T17:34:57.078Z,13.37
2022-12-01T17:37:44.468Z,14.17
2022-12-01T17:40:32.762Z,15.63
2022-12-01T17:43:20.855Z,14.40
2022-12-01T17:46:09.570Z,15.30
2022-12-01T17:48:56.997Z,15.70
2022-12-01T17:51:44.466Z,15.77
2022-12-01T17:54:32.119Z,14.50
2022-12-01T17:57:19.823Z,14.23
2022-12-01T18:00:07.580Z,15.70
2022-12-01T18:02:55.590Z,15.03
2022-12-01T18:05:43.016Z,14.60
2022-12-01T18:08:31.808Z,15.43
2022-12-01T18:11:19.601Z,16.00
2022-12-01T18:14:07.530Z,15.17
2022-12-01T18:16:55.317Z,16.47
2022-12-01T18:19:43.210Z,15.00
2022-12-01T18:22:31.104Z,15.37
2022-12-01T18:25:18.859Z,15.57
2022-12-01T18:28:06.810Z,14.93
2022-12-01T18:30:54.565Z,15.03
2022-12-01T18:33:42.686Z,16.57
2022-12-01T18:36:30.956Z,15.50
2022-12-01T18:39:18.273Z,14.97
2022-12-01T18:42:06.221Z,14.53
2022-12-01T18:44:53.676Z,13.57
2022-12-01T18:47:41.357Z,15.60
2022-12-01T18:50:29.682Z,18.67
2022-12-01T18:53:16.960Z,16.30
2022-12-01T18:56:05.243Z,13.83
2022-12-01T18:58:59.929Z,13.43
2022-12-01T19:01:48.536Z,14.37
2022-12-01T19:04:36.497Z,15.60
2022-12-01T19:07:29.340Z,14.27
2022-12-01T19:10:17.752Z,15.23
2022-12-01T19:13:05.209Z,14.93
2022-12-01T19:15:52.779Z,14.93
2022-12-01T19:18:40.967Z,14.73
2022-12-01T19:21:28.363Z,15.37
2022-12-01T19:24:16.358Z,14.33
2022-12-01T19:27:04.415Z,14.93
2022-12-01T19:29:52.830Z,14.67
2022-12-01T19:32:43.393Z,14.17
2022-12-01T19:35:31.287Z,14.80
2022-12-01T19:38:18.729Z,16.13
2022-12-01T19:41:06.621Z,14.27
2022-12-01T19:43:54.246Z,14.83
2022-12-01T19:46:41.682Z,14.93
2022-12-01T19:49:29.103Z,13.33
2022-12-01T19:52:16.520Z,14.60
2022-12-01T19:55:06.276Z,13.97
2022-12-01T19:57:53.682Z,14.17
2022-12-01T20:00:41.443Z,14.30
2022-12-01T20:03:29.248Z,14.10
2022-12-01T20:06:17.995Z,13.73
2022-12-01T20:09:07.164Z,14.93
2022-12-01T20:11:55.086Z,13.60
2022-12-01T20:14:42.580Z,13.63
2022-12-01T20:17:30.985Z,13.87
2022-12-01T20:20:18.714Z,13.63
2022-12-01T20:23:06.128Z,13.30
2022-12-01T20:25:53.609Z,14.90
2022-12-01T20:28:41.439Z,13.67
2022-12-01T20:31:29.867Z,13.77
2022-12-01T20:34:20.125Z,15.20
2022-12-01T20:37:08.068Z,13.13
2022-12-01T20:39:55.792Z,14.10
2022-12-01T20:42:43.218Z,13.17
2022-12-01T20:45:31.448Z,14.37
2022-12-01T20:48:18.892Z,13.67
2022-12-01T20:51:07.118Z,14.00
2022-12-01T20:54:19.800Z,12.87
2022-12-01T20:57:01.800Z,14.60
2022-12-01T20:59:49.173Z,14.93
2022-12-01T21:02:37.424Z,14.00
2022-12-01T21:05:25.725Z,14.50
2022-12-01T21:08:13.878Z,14.60
2022-12-01T21:11:05.394Z,13.63
2022-12-01T21:13:53.969Z,14.60
2022-12-01T21:16:42.300Z,14.77
2022-12-01T21:19:35.912Z,14.80
2022-12-01T21:22:23.952Z,13.27
2022-12-01T21:25:15.348Z,13.27
2022-12-01T21:28:06.325Z,14.70
2022-12-01T21:31:00.289Z,15.57
2022-12-01T21:33:47.767Z,16.43
2022-12-01T21:36:35.411Z,15.07
2022-12-01T21:39:23.727Z,15.37
2022-12-01T21:42:21.981Z,15.30
2022-12-01T21:45:19.836Z,14.47
2022-12-01T21:48:13.282Z,14.43
2022-12-01T21:51:02.226Z,15.17
2022-12-01T21:53:50.616Z,15.03
2022-12-01T21:56:37.871Z,15.80
2022-12-01T21:59:26.031Z,15.90
2022-12-01T22:02:27.256Z,15.50
2022-12-01T22:05:25.161Z,13.17
2022-12-01T22:08:15.564Z,14.20
2022-12-01T22:11:18.876Z,13.97
2022-12-01T22:14:09.035Z,14.63
2022-12-01T22:16:58.340Z,14.50
2022-12-01T22:19:46.564Z,13.77
2022-12-01T22:22:36.299Z,15.33
2022-12-01T22:25:25.897Z,13.23
2022-12-01T22:28:15.654Z,15.17
2022-12-01T22:31:03.232Z,14.37
2022-12-01T22:33:58.757Z,15.10
2022-12-01T22:36:49.338Z,14.33
2022-12-01T22:39:37.223Z,13.33
2022-12-01T22:42:34.990Z,13.97
2022-12-01T22:45:26.309Z,14.67
2022-12-01T22:48:24.213Z,14.13
2022-12-01T22:51:17.798Z,15.17
2022-12-01T22:54:11.326Z,14.63
2022-12-01T22:56:58.754Z,14.57
2022-12-01T22:59:48.167Z,14.07
2022-12-01T23:02:35.853Z,14.77
2022-12-01T23:05:25.488Z,14.33
2022-12-01T23:08:17.417Z,15.73
2022-12-01T23:11:07.748Z,14.23
2022-12-01T23:13:56.494Z,14.23
2022-12-01T23:16:44.365Z,14.83
2022-12-01T23:19:33.114Z,14.43
2022-12-01T23:22:21.263Z,13.83
2022-12-01T23:25:18.725Z,14.17
2022-12-01T23:28:07.566Z,14.37
2022-12-01T23:30:57.913Z,13.80
2022-12-01T23:33:45.310Z,14.97
2022-12-01T23:36:33.201Z,15.13
2022-12-01T23:39:24.420Z,14.53
2022-12-01T23:42:13.083Z,14.67
2022-12-01T23:45:00.474Z,13.87
2022-12-01T23:47:48.771Z,13.97
2022-12-01T23:50:36.515Z,15.33
2022-12-01T23:53:24.361Z,15.50
2022-12-01T23:56:14.877Z,13.90
2022-12-01T23:59:02.575Z,14.43
